Time;durP1;ratioP1;P1;durP2;ratioP2;P2;SDS_P1;SDS_P2;PMS_P1;PMS_P2;Temp;Humidity;BMP_temperature;BMP_pressure;BME280_temperature;BME280_humidity;BME280_pressure;Samples;Min_cycle;Max_cycle;Signal;HPM_P1;HPM_P2
2022/08/12 00:43:35;;;;;;;4.50;3.17;;;21.10;64.20;;;;;;2079199;28;20037;-76
2022/08/12 00:44:40;;;;;;;3.60;2.97;;;21.10;64.50;;;;;;2075108;28;20040;-77
2022/08/12 00:47:04;;;;;;;3.33;3.03;;;21.10;64.20;;;;;;2074528;28;20026;-77
2022/08/12 00:48:05;;;;;;;3.00;2.63;;;21.00;64.30;;;;;;2088855;28;20017;-77
2022/08/12 00:49:06;;;;;;;3.15;2.85;;;21.00;64.50;;;;;;2089757;28;20048;-76
2022/08/12 00:50:16;;;;;;;4.68;2.78;;;21.00;64.10;;;;;;2074370;28;20026;-77
2022/08/12 00:51:18;;;;;;;4.00;2.85;;;21.00;64.60;;;;;;2076302;28;20069;-76
2022/08/12 00:52:20;;;;;;;2.83;2.60;;;21.00;64.00;;;;;;2068746;28;20450;-77
2022/08/12 00:53:21;;;;;;;5.18;2.80;;;21.00;64.00;;;;;;2076627;28;20469;-77
2022/08/12 00:54:22;;;;;;;4.22;2.92;;;21.00;63.40;;;;;;2078148;28;20033;-77
2022/08/12 00:55:22;;;;;;;3.28;2.80;;;21.00;63.20;;;;;;2076321;28;20075;-77
2022/08/12 00:56:26;;;;;;;6.50;2.75;;;21.00;63.90;;;;;;2075851;28;20026;-77
2022/08/12 00:57:30;;;;;;;3.53;2.63;;;21.00;64.50;;;;;;2077251;28;20017;-76
2022/08/12 00:58:32;;;;;;;2.80;2.60;;;21.00;65.20;;;;;;2070278;28;20490;-77
2022/08/12 00:59:34;;;;;;;3.72;2.78;;;21.00;65.50;;;;;;2077031;28;20032;-76
2022/08/12 01:00:37;;;;;;;3.00;2.50;;;21.00;65.30;;;;;;2073108;28;20018;-77
2022/08/12 01:01:43;;;;;;;2.95;2.67;;;20.90;64.40;;;;;;2075815;28;20026;-76
2022/08/12 01:02:51;;;;;;;5.35;3.05;;;20.90;65.70;;;;;;2068626;28;20105;-77
2022/08/12 01:11:54;;;;;;;6.03;3.30;;;20.70;68.50;;;;;;2074945;28;20378;-77
2022/08/12 01:12:56;;;;;;;7.10;3.50;;;20.70;69.30;;;;;;2073638;28;20026;-77
2022/08/12 01:14:01;;;;;;;3.35;2.75;;;20.70;70.30;;;;;;2072313;28;20030;-77
2022/08/12 01:15:02;;;;;;;3.38;3.10;;;20.70;69.60;;;;;;2070686;28;20561;-77
2022/08/12 01:16:06;;;;;;;3.38;3.05;;;20.60;70.10;;;;;;2064898;28;20034;-77
2022/08/12 01:17:07;;;;;;;6.00;3.15;;;20.60;70.70;;;;;;2075002;28;20448;-77
2022/08/12 01:18:08;;;;;;;3.92;3.30;;;20.60;70.90;;;;;;2074004;28;20026;-77
2022/08/12 01:19:11;;;;;;;3.47;2.85;;;20.60;70.80;;;;;;2074784;28;20026;-77
2022/08/12 01:20:22;;;;;;;4.80;3.45;;;20.60;71.50;;;;;;2074826;28;20482;-76
2022/08/12 01:21:54;;;;;;;5.38;3.53;;;20.60;71.60;;;;;;2072703;28;20037;-77
2022/08/12 01:23:10;;;;;;;3.65;2.78;;;20.50;73.40;;;;;;2072815;28;20025;-77
2022/08/12 01:24:38;;;;;;;3.65;2.80;;;20.50;72.80;;;;;;2078295;28;20021;-77
2022/08/12 01:25:43;;;;;;;7.60;3.55;;;20.40;72.90;;;;;;2074799;28;20021;-77
2022/08/12 01:26:45;;;;;;;3.60;3.30;;;20.40;73.20;;;;;;2074473;28;20030;-77
2022/08/12 01:27:50;;;;;;;4.50;3.28;;;20.40;73.20;;;;;;2065339;28;20056;-77
2022/08/12 01:28:57;;;;;;;4.55;2.80;;;20.40;73.70;;;;;;2063258;28;20515;-76
2022/08/12 01:30:00;;;;;;;5.10;3.10;;;20.40;72.80;;;;;;2069422;28;20049;-77
2022/08/12 01:31:04;;;;;;;3.45;3.15;;;20.30;73.70;;;;;;2073416;28;20096;-77
2022/08/12 01:32:09;;;;;;;4.53;3.25;;;20.30;74.10;;;;;;2071029;28;20022;-77
2022/08/12 01:33:15;;;;;;;4.60;3.38;;;20.30;74.20;;;;;;2068991;28;20091;-77
2022/08/12 01:34:21;;;;;;;4.60;3.05;;;20.30;74.80;;;;;;2068111;28;20030;-77
2022/08/12 01:35:22;;;;;;;6.38;3.30;;;20.30;74.70;;;;;;2074908;28;20032;-77
2022/08/12 01:36:27;;;;;;;4.15;2.70;;;20.20;74.60;;;;;;2074341;28;20026;-77
2022/08/12 01:37:32;;;;;;;5.22;3.67;;;20.20;75.20;;;;;;2074482;28;20044;-77
2022/08/12 01:38:34;;;;;;;3.50;3.20;;;20.20;75.70;;;;;;2072350;28;20041;-77
2022/08/12 01:39:48;;;;;;;3.45;3.13;;;20.20;75.50;;;;;;2072660;28;20416;-76
2022/08/12 01:40:51;;;;;;;5.18;3.35;;;20.20;75.10;;;;;;2074696;28;20021;-76
2022/08/12 01:41:53;;;;;;;4.63;3.58;;;20.10;74.50;;;;;;2077933;28;20017;-76
2022/08/12 01:43:01;;;;;;;3.90;3.42;;;20.10;75.70;;;;;;2073514;28;20025;-77
2022/08/12 01:44:03;;;;;;;4.68;3.28;;;20.10;76.40;;;;;;2073895;28;20026;-77
2022/08/12 01:45:05;;;;;;;5.53;3.42;;;20.10;77.30;;;;;;2074113;28;20022;-77
2022/08/12 01:46:21;;;;;;;3.05;2.80;;;20.10;77.00;;;;;;2073002;28;20022;-77
2022/08/12 01:47:31;;;;;;;4.55;3.50;;;20.00;77.00;;;;;;2080784;28;20017;-77
2022/08/12 01:48:53;;;;;;;3.33;3.03;;;20.10;77.40;;;;;;2074106;28;20021;-77
2022/08/12 01:50:30;;;;;;;4.32;2.88;;;20.00;77.90;;;;;;2076208;28;20096;-77
2022/08/12 01:51:39;;;;;;;3.05;2.75;;;20.00;78.70;;;;;;2075566;28;20030;-77
2022/08/12 01:52:48;;;;;;;3.75;3.20;;;19.90;75.80;;;;;;2072933;28;20029;-76
2022/08/12 01:54:03;;;;;;;3.55;3.25;;;19.90;76.50;;;;;;2072680;28;20022;-77
2022/08/12 01:55:06;;;;;;;5.07;3.40;;;19.90;78.50;;;;;;2072621;28;20029;-77
2022/08/12 01:56:08;;;;;;;6.70;3.72;;;19.90;79.00;;;;;;2072427;28;20030;-77
2022/08/12 01:57:12;;;;;;;6.82;3.38;;;19.80;79.90;;;;;;2065793;28;20022;-77
2022/08/12 01:58:18;;;;;;;3.10;2.80;;;19.80;80.70;;;;;;2070017;28;20022;-77
2022/08/12 02:01:02;;;;;;;4.53;3.47;;;19.80;81.10;;;;;;2074158;28;20029;-77
2022/08/12 02:02:08;;;;;;;3.75;3.45;;;19.80;81.30;;;;;;2089443;28;20060;-77
2022/08/12 02:03:21;;;;;;;5.18;3.65;;;19.70;81.00;;;;;;2087265;28;20591;-77
2022/08/12 02:11:24;;;;;;;3.40;3.13;;;19.50;87.00;;;;;;2072368;28;19910;-77
2022/08/12 02:12:50;;;;;;;4.90;3.83;;;19.50;82.50;;;;;;2073181;28;20385;-77
2022/08/12 02:14:18;;;;;;;3.33;2.97;;;19.40;83.70;;;;;;2071579;28;20116;-77
2022/08/12 02:15:37;;;;;;;5.35;3.50;;;19.40;83.20;;;;;;2072281;28;20029;-77
2022/08/12 02:16:44;;;;;;;4.35;3.75;;;19.40;83.70;;;;;;2075577;28;20511;-77
2022/08/12 02:18:02;;;;;;;6.25;3.85;;;19.40;85.00;;;;;;2080548;28;20547;-77
2022/08/12 02:19:16;;;;;;;4.45;4.05;;;19.40;85.30;;;;;;2070752;28;20129;-77
2022/08/12 02:20:24;;;;;;;3.60;3.30;;;19.40;86.00;;;;;;2068766;28;20027;-77
2022/08/12 02:21:45;;;;;;;4.03;3.72;;;19.40;84.40;;;;;;2081948;28;20025;-77
2022/08/12 02:22:46;;;;;;;4.15;3.20;;;19.40;85.20;;;;;;2084825;28;20017;-77
2022/08/12 02:23:48;;;;;;;3.92;3.55;;;19.40;86.00;;;;;;2073629;28;20104;-77
2022/08/12 02:24:52;;;;;;;3.70;3.40;;;19.40;84.10;;;;;;2074822;28;20021;-77
2022/08/12 02:26:03;;;;;;;4.70;3.67;;;19.40;87.00;;;;;;2074822;28;20034;-77
2022/08/12 02:27:08;;;;;;;4.03;3.70;;;19.40;86.20;;;;;;2065816;28;20064;-77
2022/08/12 02:28:10;;;;;;;5.10;3.40;;;19.30;86.90;;;;;;2073421;28;20033;-77
2022/08/12 02:29:12;;;;;;;5.30;3.72;;;19.30;87.30;;;;;;2073615;28;20053;-77
2022/08/12 02:30:18;;;;;;;4.40;3.42;;;19.30;87.70;;;;;;2066615;28;20434;-77
2022/08/12 02:31:19;;;;;;;5.22;3.50;;;19.30;87.90;;;;;;2076164;28;20024;-77
2022/08/12 02:32:20;;;;;;;5.10;3.58;;;19.30;87.70;;;;;;2073056;28;20045;-77
2022/08/12 02:33:21;;;;;;;3.40;3.20;;;19.30;89.70;;;;;;2074979;28;20013;-77
2022/08/12 02:34:23;;;;;;;3.75;3.45;;;19.30;89.40;;;;;;2074733;28;20021;-76
2022/08/12 02:35:26;;;;;;;3.95;3.30;;;19.30;87.60;;;;;;2074329;28;20133;-77
2022/08/12 02:36:28;;;;;;;3.90;3.50;;;19.30;87.10;;;;;;2074010;28;20120;-76
2022/08/12 02:37:30;;;;;;;4.03;3.63;;;19.20;86.10;;;;;;2071985;28;20018;-76
2022/08/12 02:38:30;;;;;;;4.63;3.65;;;19.30;88.80;;;;;;2074433;28;20014;-77
2022/08/12 02:39:32;;;;;;;3.65;3.25;;;19.30;88.70;;;;;;2066515;28;20018;-77
2022/08/12 02:40:36;;;;;;;3.60;3.30;;;19.20;88.20;;;;;;2075884;28;20708;-77
2022/08/12 02:41:42;;;;;;;3.72;3.42;;;19.30;89.90;;;;;;2076148;28;20417;-77
2022/08/12 02:43:11;;;;;;;5.68;3.90;;;19.30;90.00;;;;;;2067653;28;20026;-77
2022/08/12 02:44:15;;;;;;;7.03;3.75;;;19.20;90.80;;;;;;2060667;28;20146;-77
2022/08/12 02:45:21;;;;;;;4.55;3.45;;;19.20;88.10;;;;;;2065690;28;20085;-77
2022/08/12 02:46:31;;;;;;;7.03;3.60;;;19.20;89.90;;;;;;2073500;28;20095;-77
2022/08/12 02:47:37;;;;;;;5.78;3.55;;;19.20;90.90;;;;;;2061491;28;20014;-77
2022/08/12 02:48:56;;;;;;;3.35;3.05;;;19.20;90.90;;;;;;2062481;28;20027;-77
2022/08/12 02:50:00;;;;;;;3.70;3.35;;;19.20;90.00;;;;;;2072533;28;20497;-77
2022/08/12 02:51:05;;;;;;;5.97;4.05;;;19.10;90.40;;;;;;2076971;28;20044;-77
2022/08/12 02:52:09;;;;;;;4.10;3.70;;;19.10;91.80;;;;;;2074271;28;20026;-77
2022/08/12 02:53:10;;;;;;;4.07;3.75;;;19.10;92.20;;;;;;2076320;28;20307;-77
2022/08/12 02:54:11;;;;;;;4.15;3.50;;;19.10;91.10;;;;;;2074649;28;20108;-77
2022/08/12 02:55:20;;;;;;;3.88;3.38;;;19.10;91.80;;;;;;2072204;28;20029;-77
2022/08/12 02:56:20;;;;;;;7.32;3.55;;;19.10;91.70;;;;;;2071296;28;20565;-77
2022/08/12 02:57:21;;;;;;;4.30;3.90;;;19.10;91.00;;;;;;2067110;28;20435;-77
2022/08/12 02:58:23;;;;;;;4.20;3.85;;;19.10;92.00;;;;;;2074506;28;20021;-77
2022/08/12 02:59:26;;;;;;;4.50;3.85;;;19.10;91.90;;;;;;2073282;28;20745;-77
2022/08/12 03:00:27;;;;;;;5.22;4.03;;;19.10;92.80;;;;;;2071828;28;20509;-76
2022/08/12 03:01:32;;;;;;;3.80;3.40;;;19.00;93.40;;;;;;2064075;28;20033;-77
2022/08/12 03:02:37;;;;;;;4.07;3.53;;;19.10;93.70;;;;;;2064395;28;20224;-77
2022/08/12 03:03:39;;;;;;;6.60;4.32;;;19.00;92.70;;;;;;2073099;28;20109;-77
2022/08/12 03:04:53;;;;;;;4.47;3.55;;;19.00;93.70;;;;;;2075229;28;20065;-77
2022/08/12 03:05:59;;;;;;;5.03;3.75;;;19.00;93.70;;;;;;2073774;28;20022;-77
2022/08/12 03:07:09;;;;;;;4.85;3.22;;;19.00;92.60;;;;;;2065401;28;20073;-77
2022/08/12 03:08:11;;;;;;;;;;;19.00;92.40;;;;;;2073487;28;20026;-77
2022/08/12 03:09:13;;;;;;;4.35;4.05;;;18.90;95.20;;;;;;2075741;28;19913;-77
2022/08/12 03:10:17;;;;;;;3.60;3.30;;;18.90;94.00;;;;;;2072829;28;20034;-77
2022/08/12 03:11:24;;;;;;;5.13;4.63;;;18.80;93.30;;;;;;2075303;28;20026;-77
2022/08/12 03:12:25;;;;;;;6.63;4.57;;;18.80;94.90;;;;;;2072754;28;20025;-77
2022/08/12 03:13:29;;;;;;;4.07;3.67;;;18.80;95.00;;;;;;2071742;28;20026;-77
2022/08/12 03:14:34;;;;;;;5.88;3.35;;;18.80;95.00;;;;;;2074206;28;20117;-77
2022/08/12 03:15:35;;;;;;;7.22;4.13;;;18.80;93.50;;;;;;2066347;28;20117;-77
2022/08/12 03:16:38;;;;;;;5.22;3.40;;;18.80;95.10;;;;;;2062486;28;20030;-77
2022/08/12 03:18:00;;;;;;;4.60;3.88;;;18.80;94.70;;;;;;2073028;28;20492;-77
2022/08/12 03:19:02;;;;;;;4.47;3.65;;;18.80;95.10;;;;;;2073825;28;20528;-77
2022/08/12 03:20:04;;;;;;;6.63;4.10;;;18.80;94.20;;;;;;2073255;28;20271;-77
2022/08/12 03:21:05;;;;;;;4.30;4.00;;;18.80;95.60;;;;;;2073717;28;20029;-76
2022/08/12 03:22:12;;;;;;;4.38;3.58;;;18.80;96.20;;;;;;2069203;28;20452;-77
2022/08/12 03:23:14;;;;;;;4.68;4.13;;;18.80;94.50;;;;;;2074340;28;20064;-77
2022/08/12 03:24:17;;;;;;;4.95;4.50;;;18.80;96.20;;;;;;2073632;28;20088;-77
2022/08/12 03:25:25;;;;;;;4.55;3.67;;;18.70;96.40;;;;;;2073592;28;20393;-77
2022/08/12 03:26:28;;;;;;;4.18;3.78;;;18.80;95.80;;;;;;2072373;28;20034;-77
2022/08/12 03:27:30;;;;;;;5.68;4.30;;;18.70;95.60;;;;;;2079266;28;20397;-77
2022/08/12 03:29:56;;;;;;;8.75;4.53;;;18.70;94.60;;;;;;2071979;28;20026;-77
2022/08/12 03:31:03;;;;;;;4.18;3.85;;;18.70;95.90;;;;;;2072570;28;20026;-77
2022/08/12 03:32:04;;;;;;;4.47;3.90;;;18.70;96.70;;;;;;2063391;28;20026;-77
2022/08/12 03:33:05;;;;;;;4.38;4.03;;;18.70;94.60;;;;;;2063470;28;20375;-77
2022/08/12 03:34:10;;;;;;;4.30;3.90;;;18.70;95.90;;;;;;2072537;28;20177;-77
2022/08/12 03:35:12;;;;;;;4.22;3.80;;;18.60;95.90;;;;;;2064364;28;20031;-77
2022/08/12 03:36:19;;;;;;;4.40;3.92;;;18.60;95.70;;;;;;2065086;28;20089;-77
2022/08/12 03:37:20;;;;;;;4.57;4.03;;;18.60;96.40;;;;;;2075693;28;20502;-77
2022/08/12 03:38:26;;;;;;;4.07;3.75;;;18.60;97.50;;;;;;2081739;28;20410;-77
2022/08/12 03:39:41;;;;;;;5.15;4.15;;;18.60;96.10;;;;;;2074856;28;20018;-77
2022/08/12 03:41:32;;;;;;;4.85;3.92;;;18.60;95.60;;;;;;2073015;28;20025;-77
2022/08/12 03:42:50;;;;;;;4.45;4.05;;;18.50;96.80;;;;;;2085615;28;20091;-77
2022/08/12 04:00:23;;;;;;;5.18;4.05;;;18.30;99.50;;;;;;2076775;28;20469;-77
2022/08/12 04:01:24;;;;;;;5.55;4.40;;;18.30;99.30;;;;;;2074820;28;20021;-77
2022/08/12 04:02:25;;;;;;;4.82;4.32;;;18.30;98.80;;;;;;2072861;28;20021;-77
2022/08/12 04:04:45;;;;;;;4.70;4.30;;;18.30;99.90;;;;;;2074940;28;20440;-77
2022/08/12 04:05:48;;;;;;;4.60;4.20;;;18.30;99.90;;;;;;2073691;28;20108;-77
2022/08/12 04:06:49;;;;;;;5.78;4.20;;;18.30;99.90;;;;;;2081377;28;20112;-77
2022/08/12 04:07:51;;;;;;;4.35;3.95;;;18.30;99.70;;;;;;2088934;28;20083;-77
2022/08/12 04:08:57;;;;;;;4.68;4.20;;;18.30;99.30;;;;;;2074216;28;20561;-77
2022/08/12 04:09:58;;;;;;;5.10;4.60;;;18.20;99.90;;;;;;2073971;28;20061;-77
2022/08/12 04:13:37;;;;;;;5.57;4.45;;;18.20;99.90;;;;;;2072219;28;20025;-77
2022/08/12 04:14:39;;;;;;;5.20;4.55;;;18.20;99.90;;;;;;2074107;28;20026;-77
2022/08/12 04:15:42;;;;;;;4.72;4.28;;;18.20;99.90;;;;;;2074577;28;20026;-77
2022/08/12 04:16:43;;;;;;;7.28;4.78;;;18.20;99.90;;;;;;2077462;28;20568;-77
2022/08/12 04:17:46;;;;;;;5.72;5.03;;;18.20;99.90;;;;;;2073655;28;20017;-77
2022/08/12 04:18:47;;;;;;;6.22;4.28;;;18.20;99.90;;;;;;2076663;28;20021;-77
2022/08/12 04:19:48;;;;;;;5.93;4.28;;;18.20;99.90;;;;;;2074206;28;20065;-77
2022/08/12 04:20:48;;;;;;;6.28;4.60;;;18.20;99.90;;;;;;2074193;28;20022;-77
2022/08/12 04:21:49;;;;;;;4.90;4.13;;;18.20;99.90;;;;;;2074020;28;20092;-77
2022/08/12 04:22:52;;;;;;;8.48;4.78;;;18.20;99.90;;;;;;2070755;28;20018;-77
2022/08/12 04:23:55;;;;;;;5.22;4.40;;;18.20;99.90;;;;;;2078775;28;20021;-77
2022/08/12 04:24:59;;;;;;;7.20;4.75;;;18.20;99.90;;;;;;2073380;28;20076;-77
2022/08/12 04:26:00;;;;;;;5.88;4.40;;;18.20;99.90;;;;;;2080126;28;20534;-77
2022/08/12 04:27:03;;;;;;;4.95;4.55;;;18.20;99.90;;;;;;2073998;28;20029;-77
2022/08/12 04:28:08;;;;;;;5.47;4.07;;;18.20;99.90;;;;;;2076207;28;20502;-77
2022/08/12 04:29:11;;;;;;;5.15;4.05;;;18.20;99.90;;;;;;2074052;28;20033;-77
2022/08/12 04:30:12;;;;;;;5.00;4.30;;;18.10;99.90;;;;;;2072758;28;20034;-77
2022/08/12 04:31:13;;;;;;;4.70;4.10;;;18.20;99.90;;;;;;2072994;28;20054;-77
2022/08/12 04:32:14;;;;;;;5.80;3.70;;;18.10;99.90;;;;;;2065139;28;20034;-77
2022/08/12 04:33:17;;;;;;;8.25;3.92;;;18.20;99.90;;;;;;2073099;28;20477;-77
2022/08/12 04:34:18;;;;;;;4.82;4.30;;;18.10;99.90;;;;;;2074778;28;20026;-77
2022/08/12 04:35:19;;;;;;;4.43;3.85;;;18.10;99.90;;;;;;2067480;28;20057;-77
2022/08/12 04:36:20;;;;;;;7.47;4.50;;;18.10;99.90;;;;;;2073939;28;20036;-77
2022/08/12 04:37:22;;;;;;;5.32;4.72;;;18.20;99.90;;;;;;2075055;28;20028;-77
2022/08/12 04:38:24;;;;;;;5.57;4.38;;;18.10;99.90;;;;;;2074137;28;20022;-77
2022/08/12 04:39:25;;;;;;;5.50;4.85;;;18.10;99.90;;;;;;2074640;28;20068;-77
2022/08/12 04:40:29;;;;;;;6.32;4.22;;;18.10;99.90;;;;;;2075387;28;20018;-77
2022/08/12 04:41:30;;;;;;;5.18;4.45;;;18.10;99.90;;;;;;2072213;28;20045;-77
2022/08/12 04:42:31;;;;;;;5.05;4.55;;;18.10;99.90;;;;;;2063465;28;20482;-77
2022/08/12 04:43:32;;;;;;;10.68;4.90;;;18.20;99.90;;;;;;2075732;28;20351;-77
2022/08/12 04:44:32;;;;;;;5.45;4.85;;;18.20;99.90;;;;;;2074445;28;20021;-77
2022/08/12 04:45:37;;;;;;;7.50;4.72;;;18.20;99.90;;;;;;2075231;28;20013;-77
2022/08/12 04:46:37;;;;;;;4.85;4.22;;;18.20;99.90;;;;;;2067638;28;20030;-77
2022/08/12 04:47:38;;;;;;;6.18;4.45;;;18.20;99.90;;;;;;2072706;28;20124;-77
2022/08/12 04:48:39;;;;;;;6.95;4.95;;;18.20;99.90;;;;;;2073199;28;20026;-77
2022/08/12 04:49:42;;;;;;;5.47;4.97;;;18.20;99.90;;;;;;2066561;28;20581;-77
2022/08/12 04:50:44;;;;;;;6.38;4.53;;;18.20;99.90;;;;;;2065674;28;20050;-77
2022/08/12 04:51:46;;;;;;;5.05;4.65;;;18.20;99.90;;;;;;2068994;28;20470;-77
2022/08/12 04:52:48;;;;;;;6.03;4.85;;;18.20;99.90;;;;;;2078739;28;20037;-77
2022/08/12 04:53:49;;;;;;;6.22;4.82;;;18.20;99.90;;;;;;2074911;28;20080;-77
2022/08/12 04:54:51;;;;;;;6.55;4.90;;;18.20;99.90;;;;;;2068738;28;20033;-76
2022/08/12 04:55:52;;;;;;;4.70;4.30;;;18.20;99.90;;;;;;2072840;28;20453;-77
2022/08/12 04:56:52;;;;;;;5.82;5.20;;;18.20;99.90;;;;;;2072602;28;20193;-77
2022/08/12 04:57:54;;;;;;;5.30;4.80;;;18.20;99.90;;;;;;2065470;28;20029;-77
2022/08/12 04:58:56;;;;;;;6.45;4.47;;;18.20;99.90;;;;;;2081933;28;20041;-77
2022/08/12 04:59:57;;;;;;;6.63;5.30;;;18.20;99.90;;;;;;2075256;28;20058;-77
2022/08/12 05:00:58;;;;;;;5.07;4.57;;;18.30;99.90;;;;;;2066316;28;20026;-77
2022/08/12 05:01:58;;;;;;;5.47;4.88;;;18.20;99.90;;;;;;2064321;28;20014;-77
2022/08/12 05:02:59;;;;;;;6.13;4.22;;;18.20;99.90;;;;;;2069395;28;20022;-77
2022/08/12 05:04:01;;;;;;;7.30;5.63;;;18.30;99.90;;;;;;2074582;28;20032;-76
2022/08/12 05:05:03;;;;;;;5.60;5.05;;;18.30;99.90;;;;;;2074620;28;20022;-77
2022/08/12 05:06:05;;;;;;;6.68;4.75;;;18.30;99.90;;;;;;2064521;28;20528;-77
2022/08/12 05:07:07;;;;;;;5.03;4.53;;;18.30;99.90;;;;;;2074542;28;20405;-77
2022/08/12 05:08:12;;;;;;;7.05;5.68;;;18.30;99.90;;;;;;2075012;28;20034;-77
2022/08/12 05:09:14;;;;;;;6.18;4.43;;;18.30;99.90;;;;;;2074901;28;20033;-77
2022/08/12 05:10:16;;;;;;;5.40;4.90;;;18.30;99.90;;;;;;2068380;28;20030;-77
2022/08/12 05:11:21;;;;;;;5.80;4.75;;;18.30;99.90;;;;;;2074224;28;20029;-77
2022/08/12 05:12:22;;;;;;;7.43;5.50;;;18.30;99.90;;;;;;2073341;28;20510;-77
2022/08/12 05:13:32;;;;;;;5.57;4.95;;;18.40;99.90;;;;;;2062539;28;20050;-77
2022/08/12 05:14:32;;;;;;;5.22;4.72;;;18.40;99.90;;;;;;2081045;28;20080;-77
2022/08/12 05:15:37;;;;;;;5.18;4.70;;;18.40;99.90;;;;;;2083010;28;20039;-77
2022/08/12 05:16:38;;;;;;;7.07;4.78;;;18.40;99.90;;;;;;2073639;28;20109;-77
2022/08/12 05:17:42;;;;;;;5.18;4.68;;;18.40;99.90;;;;;;2075900;28;20021;-77
2022/08/12 05:18:43;;;;;;;6.85;5.32;;;18.40;99.90;;;;;;2076433;28;20057;-77
2022/08/12 05:19:44;;;;;;;8.80;5.53;;;18.40;99.90;;;;;;2072087;28;20048;-77
2022/08/12 05:20:45;;;;;;;6.15;5.20;;;18.40;99.90;;;;;;2065387;28;20014;-76
2022/08/12 05:21:45;;;;;;;6.00;5.13;;;18.50;99.90;;;;;;2073525;28;20108;-77
2022/08/12 05:22:46;;;;;;;7.13;5.07;;;18.50;99.90;;;;;;2072953;28;20026;-77
2022/08/12 05:23:46;;;;;;;5.80;4.80;;;18.50;99.90;;;;;;2073402;28;20163;-77
2022/08/12 05:24:47;;;;;;;4.78;4.38;;;18.50;99.90;;;;;;2075090;28;20474;-76
2022/08/12 05:25:49;;;;;;;6.38;5.07;;;18.60;99.90;;;;;;2075322;28;20539;-77
2022/08/12 05:26:51;;;;;;;6.38;4.70;;;18.60;99.90;;;;;;2076108;28;20076;-77
2022/08/12 05:27:52;;;;;;;8.30;5.80;;;18.70;99.90;;;;;;2075225;28;20050;-76
2022/08/12 05:28:53;;;;;;;7.30;5.45;;;18.70;99.90;;;;;;2073000;28;20025;-77
2022/08/12 05:29:53;;;;;;;5.55;4.97;;;18.80;99.90;;;;;;2066400;28;20030;-76
2022/08/12 05:30:56;;;;;;;6.43;5.20;;;18.80;99.90;;;;;;2065841;28;20576;-77
2022/08/12 05:31:57;;;;;;;6.75;5.13;;;18.90;99.90;;;;;;2074322;28;20048;-76
2022/08/12 05:32:58;;;;;;;7.90;5.00;;;19.00;99.90;;;;;;2074002;28;20540;-77
2022/08/12 05:33:58;;;;;;;8.73;5.07;;;19.00;99.90;;;;;;2067882;28;20325;-76
2022/08/12 05:35:05;;;;;;;5.60;4.75;;;19.10;99.90;;;;;;2072745;28;20095;-76
2022/08/12 05:36:14;;;;;;;6.25;5.28;;;19.20;99.90;;;;;;2074689;28;20025;-76
2022/08/12 05:37:15;;;;;;;5.68;5.07;;;19.30;99.90;;;;;;2071965;28;20032;-77
2022/08/12 05:39:36;;;;;;;5.22;4.72;;;19.50;99.90;;;;;;2075299;28;20026;-77
2022/08/12 05:40:37;;;;;;;6.10;4.78;;;19.60;99.90;;;;;;2074290;28;20021;-76
2022/08/12 05:41:38;;;;;;;5.43;4.90;;;19.70;99.90;;;;;;2074864;28;20073;-77
2022/08/12 05:42:38;;;;;;;7.60;4.93;;;19.80;99.90;;;;;;2075852;28;20156;-76
2022/08/12 05:43:39;;;;;;;5.50;4.90;;;19.90;99.90;;;;;;2075490;28;20057;-76
2022/08/12 05:44:40;;;;;;;8.25;5.20;;;20.00;99.90;;;;;;2071253;28;20032;-76
2022/08/12 05:45:40;;;;;;;5.57;5.05;;;20.10;99.90;;;;;;2071100;28;20071;-77
2022/08/12 05:46:41;;;;;;;7.35;4.97;;;20.20;99.90;;;;;;2072252;28;20054;-76
2022/08/12 05:47:41;;;;;;;6.18;4.63;;;20.30;99.90;;;;;;2091734;28;20071;-76
2022/08/12 05:48:42;;;;;;;7.90;5.05;;;20.50;99.90;;;;;;2083531;28;20024;-77
2022/08/12 05:49:43;;;;;;;7.68;4.75;;;20.50;99.90;;;;;;2074518;28;20661;-76
2022/08/12 05:50:45;;;;;;;9.52;4.57;;;20.70;99.90;;;;;;2066517;28;20149;-77
2022/08/12 05:51:45;;;;;;;5.82;4.88;;;20.80;99.90;;;;;;2068480;28;20026;-77
2022/08/12 05:52:46;;;;;;;7.22;4.82;;;20.90;99.90;;;;;;2077073;28;20053;-77
2022/08/12 05:53:47;;;;;;;16.98;5.47;;;21.00;99.90;;;;;;2069962;28;20030;-77
2022/08/12 05:54:48;;;;;;;9.35;5.00;;;21.10;99.90;;;;;;2066702;28;20235;-76
2022/08/12 05:55:52;;;;;;;6.65;4.88;;;21.20;99.90;;;;;;2074229;28;20018;-77
2022/08/12 05:56:52;;;;;;;8.18;4.72;;;21.40;99.90;;;;;;2075282;28;20482;-77
2022/08/12 05:57:54;;;;;;;6.95;4.75;;;21.50;99.90;;;;;;2075394;28;20025;-77
2022/08/12 05:58:57;;;;;;;12.77;5.03;;;21.60;99.90;;;;;;2072081;28;20021;-76
2022/08/12 05:59:57;;;;;;;9.88;5.13;;;21.70;99.90;;;;;;2071854;28;20053;-77
2022/08/12 06:00:58;;;;;;;7.18;4.72;;;21.80;99.90;;;;;;2078806;28;20021;-77
2022/08/12 06:02:06;;;;;;;10.52;5.07;;;22.00;99.90;;;;;;2072758;28;20018;-77
2022/08/12 06:03:07;;;;;;;8.98;5.28;;;22.10;99.90;;;;;;2075691;28;20022;-77
2022/08/12 06:04:08;;;;;;;12.68;5.78;;;22.20;97.70;;;;;;2075032;28;20105;-77
2022/08/12 06:05:09;;;;;;;11.85;5.45;;;22.30;99.10;;;;;;2074142;28;20030;-77
2022/08/12 06:06:10;;;;;;;10.80;5.50;;;22.40;99.30;;;;;;2074654;28;20034;-77
2022/08/12 06:07:13;;;;;;;6.10;5.10;;;22.50;99.10;;;;;;2073751;28;20083;-77
2022/08/12 06:08:14;;;;;;;8.85;4.90;;;22.60;98.90;;;;;;2072325;28;20531;-77
2022/08/12 06:09:15;;;;;;;8.68;5.20;;;22.80;97.80;;;;;;2073240;28;20045;-77
2022/08/12 06:10:16;;;;;;;7.50;5.00;;;22.80;95.40;;;;;;2074163;28;20029;-77
2022/08/12 06:11:18;;;;;;;10.45;5.13;;;22.90;95.00;;;;;;2075947;28;20442;-77
2022/08/12 06:12:22;;;;;;;8.07;5.55;;;23.10;96.20;;;;;;2073178;28;20024;-77
2022/08/12 06:13:23;;;;;;;10.27;5.70;;;23.20;95.10;;;;;;2073281;28;20037;-77
2022/08/12 06:14:23;;;;;;;7.47;5.15;;;23.30;94.30;;;;;;2071851;28;20472;-77
2022/08/12 06:15:24;;;;;;;10.50;5.43;;;23.40;93.30;;;;;;2065672;28;20084;-77
2022/08/12 06:16:25;;;;;;;8.50;6.15;;;23.50;92.10;;;;;;2075316;28;20133;-77
2022/08/12 06:17:29;;;;;;;6.75;5.32;;;23.60;91.50;;;;;;2072323;28;20018;-77
2022/08/12 06:18:30;;;;;;;8.25;5.07;;;23.70;90.60;;;;;;2077516;28;20684;-77
2022/08/12 06:19:31;;;;;;;7.90;5.70;;;23.80;89.50;;;;;;2076055;28;20018;-77
2022/08/12 06:20:32;;;;;;;11.80;5.40;;;23.90;89.50;;;;;;2074803;28;20638;-77
2022/08/12 06:21:33;;;;;;;8.20;5.15;;;24.00;86.80;;;;;;2077437;28;20068;-77
2022/08/12 06:22:33;;;;;;;9.82;5.43;;;24.10;87.50;;;;;;2073965;28;20111;-77
2022/08/12 06:23:35;;;;;;;10.60;5.35;;;24.20;86.10;;;;;;2074654;28;20035;-77
2022/08/12 06:24:35;;;;;;;10.40;5.78;;;24.30;84.90;;;;;;2073259;28;20037;-77
2022/08/12 06:25:36;;;;;;;11.00;6.05;;;24.40;85.60;;;;;;2072376;28;20113;-77
2022/08/12 06:26:37;;;;;;;7.65;5.75;;;24.60;83.60;;;;;;2072202;28;20010;-78
2022/08/12 06:27:48;;;;;;;12.77;5.60;;;24.60;82.00;;;;;;2072171;28;20082;-77
2022/08/12 06:28:50;;;;;;;9.85;6.00;;;24.70;79.90;;;;;;2076031;28;20535;-77
2022/08/12 06:29:51;;;;;;;8.13;5.43;;;24.80;80.80;;;;;;2071630;28;20413;-77
2022/08/12 06:30:52;;;;;;;12.10;5.68;;;24.90;79.60;;;;;;2074390;28;20057;-77
2022/08/12 06:31:52;;;;;;;8.90;5.43;;;25.00;79.20;;;;;;2072828;28;20018;-77
2022/08/12 06:32:53;;;;;;;7.40;4.93;;;25.10;77.80;;;;;;2074976;28;20022;-77
2022/08/12 06:33:54;;;;;;;7.30;5.20;;;25.20;77.50;;;;;;2072924;28;20076;-77
2022/08/12 06:34:55;;;;;;;10.77;5.95;;;25.20;78.70;;;;;;2073676;28;20054;-77
2022/08/12 06:35:56;;;;;;;13.38;5.57;;;25.30;78.60;;;;;;2075256;28;20026;-77
2022/08/12 06:36:56;;;;;;;8.82;4.88;;;25.40;74.90;;;;;;2073369;28;20018;-77
2022/08/12 06:37:57;;;;;;;8.57;5.28;;;25.50;75.90;;;;;;2061672;28;20026;-77
2022/08/12 06:38:57;;;;;;;6.85;5.15;;;25.50;74.50;;;;;;2075836;28;20013;-77
2022/08/12 06:39:58;;;;;;;11.20;5.35;;;25.60;76.20;;;;;;2088372;28;20032;-77
2022/08/12 06:43:39;;;;;;;9.57;4.97;;;25.90;74.10;;;;;;2071880;28;20113;-77
2022/08/12 06:44:40;;;;;;;7.28;5.05;;;26.00;73.10;;;;;;2074320;28;20029;-77
2022/08/12 06:45:44;;;;;;;8.20;4.85;;;26.10;71.40;;;;;;2073834;28;20054;-76
2022/08/12 06:46:45;;;;;;;7.57;4.18;;;26.10;70.10;;;;;;2077031;28;20100;-76
2022/08/12 06:47:47;;;;;;;7.20;4.88;;;26.20;68.80;;;;;;2075937;28;20606;-77
2022/08/12 06:48:49;;;;;;;9.95;4.65;;;26.40;68.90;;;;;;2075071;28;20068;-77
2022/08/12 06:49:51;;;;;;;6.07;4.55;;;26.50;68.60;;;;;;2072637;28;20026;-77
2022/08/12 06:50:53;;;;;;;8.73;5.57;;;26.50;67.30;;;;;;2073120;28;20489;-77
2022/08/12 06:51:54;;;;;;;5.90;4.30;;;26.60;66.90;;;;;;2071177;28;20026;-77
2022/08/12 06:52:54;;;;;;;10.32;5.05;;;26.70;67.10;;;;;;2071250;28;20018;-77
2022/08/12 06:53:57;;;;;;;7.82;4.88;;;26.80;66.40;;;;;;2073057;28;20056;-77
2022/08/12 06:54:58;;;;;;;7.57;5.30;;;26.90;66.70;;;;;;2071304;28;20025;-77
2022/08/12 06:56:00;;;;;;;9.05;4.65;;;26.90;65.40;;;;;;2073479;28;20036;-77
2022/08/12 06:57:01;;;;;;;11.45;5.07;;;27.00;65.90;;;;;;2072222;28;20036;-77
2022/08/12 06:58:03;;;;;;;10.77;4.43;;;27.10;65.30;;;;;;2070693;28;20120;-77
2022/08/12 06:59:04;;;;;;;8.80;5.10;;;27.20;63.10;;;;;;2070308;28;20633;-77